Time;durP1;ratioP1;P1;durP2;ratioP2;P2;SDS_P1;SDS_P2;PMS_P1;PMS_P2;Temp;Humidity;BMP_temperature;BMP_pressure;BME280_temperature;BME280_humidity;BME280_pressure;Samples;Min_cycle;Max_cycle;Signal;HPM_P1;HPM_P2
2022/05/23 00:02:09;;;;;;;2.35;1.70;;;;;;;;;;5001297;28;20042;-86
2022/05/23 00:04:35;;;;;;;4.32;1.70;;;;;;;;;;5000297;28;20471;-87
2022/05/23 00:07:02;;;;;;;4.28;1.80;;;;;;;;;;4983493;28;20078;-87
2022/05/23 00:09:29;;;;;;;4.40;1.80;;;;;;;;;;5000971;28;20101;-86
2022/05/23 00:11:55;;;;;;;4.82;1.80;;;;;;;;;;5001151;28;20053;-86
2022/05/23 00:14:21;;;;;;;2.83;1.83;;;;;;;;;;4999581;28;20034;-86
2022/05/23 00:16:49;;;;;;;2.97;1.80;;;;;;;;;;5000224;28;20403;-87
2022/05/23 00:19:15;;;;;;;2.47;1.70;;;;;;;;;;4999869;28;20026;-86
2022/05/23 00:21:43;;;;;;;4.35;1.80;;;;;;;;;;5000762;28;20038;-86
2022/05/23 00:24:09;;;;;;;3.00;1.50;;;;;;;;;;4999938;28;20117;-86
2022/05/23 00:26:36;;;;;;;2.33;1.70;;;;;;;;;;5001034;28;20451;-86
2022/05/23 00:29:03;;;;;;;3.40;1.63;;;;;;;;;;4999074;28;20487;-85
2022/05/23 00:31:28;;;;;;;3.33;1.60;;;;;;;;;;5000400;28;20493;-86
2022/05/23 00:36:38;;;;;;;4.38;1.90;;;;;;;;;;5000024;28;20053;-86
2022/05/23 00:39:04;;;;;;;3.28;1.88;;;;;;;;;;4982476;28;20455;-86
2022/05/23 00:44:22;;;;;;;3.03;1.65;;;;;;;;;;4999800;28;20034;-86
2022/05/23 00:47:01;;;;;;;2.78;1.77;;;;;;;;;;4999426;28;20042;-85
2022/05/23 00:49:33;;;;;;;5.90;1.90;;;;;;;;;;4981906;28;20045;-86
2022/05/23 00:52:03;;;;;;;2.38;1.65;;;;;;;;;;4998501;28;20065;-86
2022/05/23 00:54:40;;;;;;;5.07;1.80;;;;;;;;;;4998812;28;20125;-85
2022/05/23 00:57:09;;;;;;;2.33;1.80;;;;;;;;;;4966239;28;20068;-86
2022/05/23 00:59:34;;;;;;;2.55;1.70;;;;;;;;;;4998051;28;20038;-85
2022/05/23 01:02:02;;;;;;;2.72;1.65;;;;;;;;;;4997338;28;20044;-86
2022/05/23 01:04:40;;;;;;;3.70;1.73;;;;;;;;;;4981389;28;20030;-86
2022/05/23 01:07:07;;;;;;;6.43;1.92;;;;;;;;;;4982112;28;20037;-86
2022/05/23 01:09:33;;;;;;;3.15;1.70;;;;;;;;;;4998485;28;20042;-86
2022/05/23 01:11:59;;;;;;;3.88;2.00;;;;;;;;;;4997458;28;20081;-86
2022/05/23 01:14:26;;;;;;;4.63;1.77;;;;;;;;;;4997492;28;20054;-85
2022/05/23 01:16:52;;;;;;;3.85;1.85;;;;;;;;;;4999388;28;20042;-85
2022/05/23 01:19:18;;;;;;;3.92;1.83;;;;;;;;;;4998314;28;20039;-85
2022/05/23 01:22:13;;;;;;;2.28;1.70;;;;;;;;;;4981344;28;20388;-86
2022/05/23 01:24:47;;;;;;;3.70;1.70;;;;;;;;;;4964826;28;20570;-86
2022/05/23 01:27:14;;;;;;;3.72;2.10;;;;;;;;;;4997918;28;20124;-86
2022/05/23 01:29:44;;;;;;;5.60;2.00;;;;;;;;;;4998312;28;20030;-86
2022/05/23 01:32:11;;;;;;;2.58;1.60;;;;;;;;;;4981323;28;20030;-86
2022/05/23 01:34:42;;;;;;;3.47;1.70;;;;;;;;;;4981006;28;20044;-85
2022/05/23 01:37:10;;;;;;;2.33;1.70;;;;;;;;;;4997721;28;20165;-86
2022/05/23 01:39:59;;;;;;;2.55;1.70;;;;;;;;;;4987414;28;20038;-87
2022/05/23 01:42:47;;;;;;;5.28;1.83;;;;;;;;;;4981523;28;20076;-86
2022/05/23 01:45:15;;;;;;;4.63;1.95;;;;;;;;;;4980860;28;20037;-86
2022/05/23 01:47:41;;;;;;;2.47;1.80;;;;;;;;;;4981135;28;20030;-86
2022/05/23 01:50:07;;;;;;;2.13;1.65;;;;;;;;;;4998438;28;20125;-86
2022/05/23 01:52:38;;;;;;;4.03;1.80;;;;;;;;;;4980960;28;20038;-86
2022/05/23 01:55:13;;;;;;;2.90;1.70;;;;;;;;;;4980081;28;20042;-86
2022/05/23 01:57:49;;;;;;;2.85;1.77;;;;;;;;;;4996330;28;20036;-85
2022/05/23 02:02:59;;;;;;;2.85;1.60;;;;;;;;;;4998077;28;20038;-86
2022/05/23 02:05:25;;;;;;;2.90;1.88;;;;;;;;;;4997951;28;20031;-86
2022/05/23 02:07:52;;;;;;;2.75;1.80;;;;;;;;;;4980264;28;20061;-86
2022/05/23 02:10:19;;;;;;;4.38;1.83;;;;;;;;;;4998087;28;20088;-85
2022/05/23 02:12:47;;;;;;;3.10;2.38;;;;;;;;;;4996758;28;20046;-85
2022/05/23 02:15:18;;;;;;;4.18;2.13;;;;;;;;;;4996632;28;20038;-85
2022/05/23 02:18:03;;;;;;;4.35;2.00;;;;;;;;;;4998135;28;20053;-86
2022/05/23 02:20:29;;;;;;;2.58;1.67;;;;;;;;;;4997834;28;20091;-86
2022/05/23 02:22:55;;;;;;;3.90;1.70;;;;;;;;;;4998097;28;20037;-86
2022/05/23 02:25:23;;;;;;;3.70;2.10;;;;;;;;;;4996151;28;20030;-85
2022/05/23 02:27:49;;;;;;;3.97;2.00;;;;;;;;;;4996685;28;20038;-85
2022/05/23 02:30:15;;;;;;;3.03;1.98;;;;;;;;;;4996728;28;20044;-86
2022/05/23 02:32:41;;;;;;;5.55;2.00;;;;;;;;;;4996776;28;20042;-85
2022/05/23 02:35:09;;;;;;;5.43;2.20;;;;;;;;;;4996531;28;20035;-86
2022/05/23 02:37:35;;;;;;;2.90;1.90;;;;;;;;;;4980119;28;20037;-86
2022/05/23 02:40:02;;;;;;;2.35;1.77;;;;;;;;;;4979711;28;20045;-85
2022/05/23 02:42:29;;;;;;;1.92;1.73;;;;;;;;;;4964316;28;20542;-85
2022/05/23 02:44:56;;;;;;;4.03;2.15;;;;;;;;;;4996252;28;20034;-85
2022/05/23 02:47:25;;;;;;;4.25;1.98;;;;;;;;;;4980008;28;20045;-86
2022/05/23 02:49:52;;;;;;;3.40;2.10;;;;;;;;;;4980914;28;20037;-86
2022/05/23 02:52:44;;;;;;;4.47;1.90;;;;;;;;;;4980329;28;20038;-86
2022/05/23 02:55:19;;;;;;;4.60;2.35;;;;;;;;;;4979465;28;20123;-86
2022/05/23 02:57:45;;;;;;;4.65;2.20;;;;;;;;;;4979601;28;20069;-86
2022/05/23 03:00:16;;;;;;;2.60;1.92;;;;;;;;;;4980762;28;20513;-86
2022/05/23 03:03:02;;;;;;;3.92;1.70;;;;;;;;;;4980536;28;20418;-86
2022/05/23 03:05:38;;;;;;;2.88;1.90;;;;;;;;;;4979885;28;20035;-86
2022/05/23 03:08:04;;;;;;;4.97;2.00;;;;;;;;;;4980051;28;20030;-86
2022/05/23 03:10:30;;;;;;;3.13;2.03;;;;;;;;;;4980295;28;20081;-85
2022/05/23 03:12:55;;;;;;;3.65;1.83;;;;;;;;;;4963961;28;20150;-86
2022/05/23 03:15:21;;;;;;;3.92;1.83;;;;;;;;;;4979502;28;20027;-85
2022/05/23 03:17:47;;;;;;;2.30;1.90;;;;;;;;;;4979307;28;20034;-85
2022/05/23 03:20:14;;;;;;;3.30;2.03;;;;;;;;;;4963283;28;20035;-85
2022/05/23 03:28:10;;;;;;;3.58;2.20;;;;;;;;;;4999318;28;20107;-85
2022/05/23 03:30:36;;;;;;;5.05;2.03;;;;;;;;;;4983418;28;20065;-84
2022/05/23 03:33:02;;;;;;;6.68;2.10;;;;;;;;;;4983223;28;20114;-86
2022/05/23 03:35:31;;;;;;;6.38;2.63;;;;;;;;;;4998982;28;20062;-87
2022/05/23 03:37:58;;;;;;;3.92;2.00;;;;;;;;;;4982765;28;20507;-86
2022/05/23 03:40:24;;;;;;;4.20;2.05;;;;;;;;;;4983121;28;20034;-85
2022/05/23 03:42:55;;;;;;;5.13;2.03;;;;;;;;;;4999081;28;20034;-86
2022/05/23 03:45:21;;;;;;;2.88;2.13;;;;;;;;;;4998585;28;20034;-86
2022/05/23 03:47:49;;;;;;;5.55;2.10;;;;;;;;;;4982028;28;20162;-85
2022/05/23 03:50:17;;;;;;;4.38;2.00;;;;;;;;;;4998855;28;20034;-85
2022/05/23 03:52:44;;;;;;;3.17;2.20;;;;;;;;;;4998889;28;20380;-86
2022/05/23 03:55:15;;;;;;;5.80;2.20;;;;;;;;;;4998735;28;20529;-86
2022/05/23 03:57:42;;;;;;;3.35;2.20;;;;;;;;;;4983112;28;20042;-85
2022/05/23 04:00:09;;;;;;;2.55;2.08;;;;;;;;;;4982767;28;20045;-86
2022/05/23 04:02:42;;;;;;;5.97;2.83;;;;;;;;;;5000023;28;20034;-86
2022/05/23 04:05:10;;;;;;;4.97;2.40;;;;;;;;;;4998471;28;20049;-86
2022/05/23 04:07:51;;;;;;;3.40;2.17;;;;;;;;;;4999887;28;20064;-86
2022/05/23 04:10:26;;;;;;;3.97;2.20;;;;;;;;;;4982263;28;20095;-85
2022/05/23 04:12:52;;;;;;;7.03;2.40;;;;;;;;;;4982835;28;20125;-85
2022/05/23 04:15:20;;;;;;;4.45;2.58;;;;;;;;;;4981716;28;20030;-84
2022/05/23 04:17:45;;;;;;;3.45;2.10;;;;;;;;;;4982511;28;20049;-85
2022/05/23 04:20:11;;;;;;;4.90;2.30;;;;;;;;;;4999716;28;20077;-86
2022/05/23 04:22:55;;;;;;;3.30;2.33;;;;;;;;;;4984622;28;20533;-86
2022/05/23 04:25:24;;;;;;;4.25;2.20;;;;;;;;;;4997812;28;20489;-86
2022/05/23 04:27:50;;;;;;;4.00;2.28;;;;;;;;;;4982452;28;20031;-86
2022/05/23 04:30:15;;;;;;;4.57;2.08;;;;;;;;;;4982426;28;20026;-86
2022/05/23 04:35:38;;;;;;;5.57;2.67;;;;;;;;;;4965149;28;20073;-86
2022/05/23 04:38:03;;;;;;;5.60;2.50;;;;;;;;;;4981966;28;20092;-86
2022/05/23 04:40:36;;;;;;;5.13;2.58;;;;;;;;;;4982090;28;20034;-86
2022/05/23 04:43:03;;;;;;;3.08;2.30;;;;;;;;;;4997984;28;20153;-86
2022/05/23 04:45:29;;;;;;;6.90;2.58;;;;;;;;;;4981218;28;20067;-85
2022/05/23 04:50:57;;;;;;;5.28;2.33;;;;;;;;;;4997688;28;20117;-86
2022/05/23 04:53:28;;;;;;;7.53;3.38;;;;;;;;;;4980949;28;20034;-86
2022/05/23 04:56:17;;;;;;;4.10;2.10;;;;;;;;;;4980157;28;20574;-85
2022/05/23 04:58:42;;;;;;;4.25;2.13;;;;;;;;;;4997672;28;20046;-85
2022/05/23 05:01:08;;;;;;;6.18;2.30;;;;;;;;;;4980710;28;20026;-86
2022/05/23 05:03:34;;;;;;;6.30;2.25;;;;;;;;;;4997469;28;20108;-86
2022/05/23 05:06:01;;;;;;;3.75;2.00;;;;;;;;;;4996642;28;20142;-86
2022/05/23 05:08:28;;;;;;;3.50;2.20;;;;;;;;;;4980942;28;20065;-86
2022/05/23 05:10:54;;;;;;;7.20;2.10;;;;;;;;;;4998741;28;20034;-85
2022/05/23 05:13:20;;;;;;;6.63;2.20;;;;;;;;;;4980762;28;20037;-85
2022/05/23 05:15:45;;;;;;;9.38;2.85;;;;;;;;;;4980317;28;20407;-86
2022/05/23 05:18:32;;;;;;;4.93;2.58;;;;;;;;;;4983139;28;20050;-86
2022/05/23 05:21:18;;;;;;;5.72;2.20;;;;;;;;;;4987418;28;20700;-85
2022/05/23 05:24:04;;;;;;;5.00;1.95;;;;;;;;;;4982698;28;20075;-86
2022/05/23 05:26:34;;;;;;;4.93;2.35;;;;;;;;;;4997743;28;20034;-86
2022/05/23 05:28:59;;;;;;;6.15;2.40;;;;;;;;;;4979438;28;20088;-85
2022/05/23 05:31:33;;;;;;;5.70;2.30;;;;;;;;;;4963674;28;20399;-85
2022/05/23 05:34:08;;;;;;;5.55;2.50;;;;;;;;;;4997759;28;20034;-84
2022/05/23 05:36:38;;;;;;;4.97;2.30;;;;;;;;;;4998312;28;20038;-85
2022/05/23 05:39:06;;;;;;;3.30;2.00;;;;;;;;;;4997422;28;20045;-86
2022/05/23 05:42:14;;;;;;;4.55;2.35;;;;;;;;;;4996470;28;20042;-85
2022/05/23 05:44:48;;;;;;;6.30;2.55;;;;;;;;;;4964816;28;20085;-85
2022/05/23 05:47:16;;;;;;;4.22;2.15;;;;;;;;;;4996172;28;20049;-85
2022/05/23 05:49:46;;;;;;;11.20;2.42;;;;;;;;;;4980455;28;20030;-85
2022/05/23 05:52:15;;;;;;;3.65;2.40;;;;;;;;;;4980466;28;20096;-85
2022/05/23 05:54:51;;;;;;;8.02;2.67;;;;;;;;;;4980151;28;20065;-86
2022/05/23 05:57:17;;;;;;;5.07;2.60;;;;;;;;;;4997376;28;20045;-86
2022/05/23 05:59:42;;;;;;;7.47;2.35;;;;;;;;;;4981162;28;20058;-85
2022/05/23 06:02:08;;;;;;;6.13;2.45;;;;;;;;;;4997190;28;20034;-86
2022/05/23 06:04:36;;;;;;;5.13;2.60;;;;;;;;;;4979506;28;20041;-85
2022/05/23 06:12:51;;;;;;;6.43;2.13;;;;;;;;;;4995503;28;20045;-86
2022/05/23 06:15:37;;;;;;;3.75;2.38;;;;;;;;;;4995842;28;20050;-85
2022/05/23 06:18:03;;;;;;;6.78;2.28;;;;;;;;;;4978964;28;20379;-86
2022/05/23 06:20:29;;;;;;;3.92;2.33;;;;;;;;;;4979646;28;20038;-86
2022/05/23 06:22:56;;;;;;;3.85;2.20;;;;;;;;;;4979356;28;20030;-86
2022/05/23 06:25:23;;;;;;;4.57;2.15;;;;;;;;;;4979475;28;20160;-86
2022/05/23 06:27:51;;;;;;;6.47;2.03;;;;;;;;;;4996660;28;20030;-86
2022/05/23 06:30:21;;;;;;;7.47;2.10;;;;;;;;;;4997006;28;20023;-86
2022/05/23 06:33:10;;;;;;;4.22;1.80;;;;;;;;;;4982449;28;20038;-87
2022/05/23 06:35:51;;;;;;;3.92;2.00;;;;;;;;;;4996209;28;20125;-86
2022/05/23 06:38:20;;;;;;;3.97;1.90;;;;;;;;;;4996701;28;20521;-86
2022/05/23 06:41:08;;;;;;;7.55;2.10;;;;;;;;;;4996986;28;20042;-86
2022/05/23 06:43:52;;;;;;;8.27;1.90;;;;;;;;;;4996841;28;20052;-86
2022/05/23 06:46:20;;;;;;;5.22;2.10;;;;;;;;;;4997439;28;20495;-86
2022/05/23 06:49:06;;;;;;;6.57;2.17;;;;;;;;;;4997656;28;20053;-85
2022/05/23 06:51:58;;;;;;;4.30;2.13;;;;;;;;;;4993320;28;20117;-86
2022/05/23 06:54:35;;;;;;;3.53;2.13;;;;;;;;;;4992693;28;20514;-87
2022/05/23 06:57:17;;;;;;;4.63;2.50;;;;;;;;;;4995984;28;20101;-85
2022/05/23 06:59:46;;;;;;;3.50;2.15;;;;;;;;;;5013797;28;20138;-87
2022/05/23 07:24:51;;;;;;;6.68;2.22;;;;;;;;;;4978336;26;20051;-86
2022/05/23 07:27:34;;;;;;;6.22;2.40;;;;;;;;;;4979489;28;20047;-85
2022/05/23 07:30:08;;;;;;;4.50;2.30;;;;;;;;;;4979322;28;20035;-85
2022/05/23 07:33:00;;;;;;;5.57;2.13;;;;;;;;;;4978799;28;20035;-85
2022/05/23 07:35:58;;;;;;;8.25;2.42;;;;;;;;;;4972478;23;20059;-85
2022/05/23 07:39:26;;;;;;;4.85;2.10;;;;;;;;;;4938491;29;20405;-84
2022/05/23 07:42:47;;;;;;;4.25;2.35;;;;;;;;;;4941514;29;20098;-88
2022/05/23 08:01:38;;;;;;;4.88;2.22;;;;;;;;;;4938462;29;20408;-84
2022/05/23 08:04:04;;;;;;;8.02;2.40;;;;;;;;;;4939567;29;20092;-85
2022/05/23 08:06:38;;;;;;;5.25;2.20;;;;;;;;;;4939640;29;20036;-85
2022/05/23 08:09:04;;;;;;;8.15;2.35;;;;;;;;;;4940007;29;20504;-86
2022/05/23 08:11:30;;;;;;;5.03;2.03;;;;;;;;;;4940329;29;20043;-86
2022/05/23 08:14:10;;;;;;;4.50;2.20;;;;;;;;;;4926122;29;20042;-86
2022/05/23 08:16:50;;;;;;;3.10;2.00;;;;;;;;;;4939817;29;20059;-86
2022/05/23 08:19:26;;;;;;;9.15;2.05;;;;;;;;;;4940784;29;20036;-86
2022/05/23 08:21:56;;;;;;;4.93;2.05;;;;;;;;;;4939894;29;20047;-86
2022/05/23 08:24:22;;;;;;;6.35;2.40;;;;;;;;;;4941737;29;20400;-86
2022/05/23 08:26:48;;;;;;;7.35;2.53;;;;;;;;;;4939944;29;20066;-84
2022/05/23 08:29:14;;;;;;;5.30;2.50;;;;;;;;;;4939502;29;20066;-84
2022/05/23 08:31:50;;;;;;;6.50;2.60;;;;;;;;;;4940030;29;20035;-85
2022/05/23 08:34:25;;;;;;;5.15;2.67;;;;;;;;;;4939908;29;20047;-84
2022/05/23 08:36:52;;;;;;;7.75;2.80;;;;;;;;;;4940186;29;20104;-84
2022/05/23 08:39:18;;;;;;;6.40;2.50;;;;;;;;;;4939728;29;20501;-84
2022/05/23 08:42:29;;;;;;;5.82;2.85;;;;;;;;;;4930986;29;20043;-84
2022/05/23 08:45:14;;;;;;;11.80;3.03;;;;;;;;;;4939106;29;20063;-83
2022/05/23 08:48:14;;;;;;;5.97;3.00;;;;;;;;;;4923529;29;20039;-85
2022/05/23 08:50:59;;;;;;;9.10;2.80;;;;;;;;;;4939105;29;20020;-87
2022/05/23 08:53:40;;;;;;;6.45;2.80;;;;;;;;;;4939551;29;20114;-86
2022/05/23 08:56:43;;;;;;;7.80;2.70;;;;;;;;;;4939989;29;20036;-87
2022/05/23 08:59:37;;;;;;;5.75;2.60;;;;;;;;;;4940130;29;20497;-86
2022/05/23 09:02:16;;;;;;;5.78;2.40;;;;;;;;;;4939231;29;20059;-86
2022/05/23 09:05:11;;;;;;;5.97;2.58;;;;;;;;;;4939470;29;20046;-86
2022/05/23 09:07:48;;;;;;;9.38;2.95;;;;;;;;;;4941148;29;20035;-86
2022/05/23 09:10:30;;;;;;;8.90;3.20;;;;;;;;;;4940837;29;20122;-86
2022/05/23 09:12:55;;;;;;;6.57;2.92;;;;;;;;;;4940956;29;20031;-86
2022/05/23 09:15:23;;;;;;;5.63;3.42;;;;;;;;;;4940646;29;20058;-86
2022/05/23 09:17:54;;;;;;;7.20;2.95;;;;;;;;;;4923787;29;20412;-87
2022/05/23 09:20:42;;;;;;;3.72;2.75;;;;;;;;;;4938369;29;20040;-86
2022/05/23 09:23:12;;;;;;;5.03;2.80;;;;;;;;;;4938717;29;20036;-85
2022/05/23 09:25:39;;;;;;;5.50;2.90;;;;;;;;;;4940218;29;20035;-86
2022/05/23 09:28:34;;;;;;;7.38;3.28;;;;;;;;;;4939617;29;20035;-85
2022/05/23 09:31:33;;;;;;;8.10;2.85;;;;;;;;;;4920649;29;20054;-85
2022/05/23 09:34:02;;;;;;;8.80;3.08;;;;;;;;;;4940023;29;20042;-85
2022/05/23 09:36:33;;;;;;;8.40;3.33;;;;;;;;;;4938453;29;20572;-86
2022/05/23 09:39:06;;;;;;;10.25;3.30;;;;;;;;;;4939814;29;20087;-86
2022/05/23 09:47:45;;;;;;;6.60;2.90;;;;;;;;;;4941001;29;20071;-85
2022/05/23 09:50:13;;;;;;;5.95;3.03;;;;;;;;;;4940573;29;20054;-86
2022/05/23 09:52:49;;;;;;;9.45;2.83;;;;;;;;;;4939743;29;20441;-86
2022/05/23 09:55:28;;;;;;;10.10;3.30;;;;;;;;;;4938728;29;20138;-86
2022/05/23 09:57:57;;;;;;;7.97;3.08;;;;;;;;;;4940729;29;20310;-87
2022/05/23 10:00:22;;;;;;;8.68;3.50;;;;;;;;;;4940765;29;20105;-86
2022/05/23 10:03:02;;;;;;;6.95;3.00;;;;;;;;;;4942024;29;20081;-86
2022/05/23 10:05:30;;;;;;;7.95;3.10;;;;;;;;;;4940473;29;20094;-86
2022/05/23 10:08:00;;;;;;;6.53;2.80;;;;;;;;;;4939679;29;20031;-86
2022/05/23 10:10:27;;;;;;;5.20;2.70;;;;;;;;;;4940267;29;20489;-84
2022/05/23 10:13:16;;;;;;;4.25;2.50;;;;;;;;;;4939203;29;20059;-83
2022/05/23 10:15:44;;;;;;;9.00;3.13;;;;;;;;;;4948612;29;20124;-84
2022/05/23 10:18:29;;;;;;;119.20;7.20;;;;;;;;;;4949476;29;20042;-87
2022/05/23 10:20:56;;;;;;;8.00;2.80;;;;;;;;;;4942767;29;20433;-87
2022/05/23 10:23:26;;;;;;;5.55;2.80;;;;;;;;;;4937812;29;20040;-87
2022/05/23 10:26:23;;;;;;;6.85;2.85;;;;;;;;;;4938361;29;20422;-87
2022/05/23 10:28:55;;;;;;;7.45;2.83;;;;;;;;;;4938676;29;20040;-87
2022/05/23 10:32:02;;;;;;;13.65;2.80;;;;;;;;;;4938273;29;20031;-87
2022/05/23 10:34:39;;;;;;;6.65;3.25;;;;;;;;;;4942037;29;20039;-87
2022/05/23 10:37:27;;;;;;;9.02;2.97;;;;;;;;;;4941634;29;20520;-87
2022/05/23 10:42:47;;;;;;;8.90;3.05;;;;;;;;;;4941552;29;20052;-87
2022/05/23 10:45:33;;;;;;;10.73;3.00;;;;;;;;;;4942795;29;20091;-87
2022/05/23 10:48:16;;;;;;;7.03;3.13;;;;;;;;;;4942352;29;20051;-87
2022/05/23 10:51:02;;;;;;;6.15;2.97;;;;;;;;;;4942550;29;20167;-87
2022/05/23 10:54:04;;;;;;;5.65;2.85;;;;;;;;;;4943021;29;20043;-87
2022/05/23 10:56:54;;;;;;;8.65;3.00;;;;;;;;;;4941090;29;20036;-87
2022/05/23 10:59:23;;;;;;;9.77;3.30;;;;;;;;;;4941508;29;20381;-86
2022/05/23 11:02:18;;;;;;;5.38;2.72;;;;;;;;;;4942857;29;20036;-87
2022/05/23 11:04:49;;;;;;;7.40;2.97;;;;;;;;;;4941949;29;20039;-86
2022/05/23 11:07:30;;;;;;;7.25;3.35;;;;;;;;;;4941144;29;20058;-87
2022/05/23 11:09:55;;;;;;;9.10;3.00;;;;;;;;;;4942048;29;20050;-88
2022/05/23 11:12:57;;;;;;;6.07;2.80;;;;;;;;;;4944835;29;20023;-87
2022/05/23 11:15:54;;;;;;;5.60;2.78;;;;;;;;;;4946408;29;20039;-88
2022/05/23 11:18:50;;;;;;;7.47;2.90;;;;;;;;;;4936262;29;20566;-87
2022/05/23 11:21:30;;;;;;;6.80;3.03;;;;;;;;;;4944935;29;20036;-88
2022/05/23 11:24:04;;;;;;;7.70;2.83;;;;;;;;;;4943859;29;20115;-86
2022/05/23 11:26:39;;;;;;;8.13;3.13;;;;;;;;;;4941494;29;20043;-88
2022/05/23 11:34:45;;;;;;;5.93;3.00;;;;;;;;;;4941838;29;20497;-88
2022/05/23 11:40:01;;;;;;;6.85;3.00;;;;;;;;;;4942691;29;20067;-88
2022/05/23 11:42:56;;;;;;;6.07;2.80;;;;;;;;;;4940885;29;20044;-89
2022/05/23 11:48:39;;;;;;;5.53;2.50;;;;;;;;;;4923126;29;20047;-88
2022/05/23 11:51:17;;;;;;;6.00;2.50;;;;;;;;;;4905533;29;20091;-89
2022/05/23 11:53:44;;;;;;;5.93;2.50;;;;;;;;;;4921964;29;20044;-88
2022/05/23 11:56:41;;;;;;;8.13;2.50;;;;;;;;;;4920828;29;20038;-88
2022/05/23 11:59:11;;;;;;;5.18;2.40;;;;;;;;;;4905796;29;20088;-89
2022/05/23 12:01:37;;;;;;;7.35;2.53;;;;;;;;;;4922697;29;20037;-88
2022/05/23 12:04:02;;;;;;;4.93;2.55;;;;;;;;;;4921739;29;20056;-88
2022/05/23 12:06:28;;;;;;;8.75;2.70;;;;;;;;;;4921370;29;20046;-89
2022/05/23 12:09:05;;;;;;;6.25;2.70;;;;;;;;;;4920528;29;20036;-89
2022/05/23 12:11:33;;;;;;;10.70;2.90;;;;;;;;;;4921616;29;20051;-89
2022/05/23 12:14:43;;;;;;;8.50;2.55;;;;;;;;;;4922611;29;20039;-89
2022/05/23 12:17:24;;;;;;;5.40;2.40;;;;;;;;;;4921713;29;20051;-88
2022/05/23 12:19:55;;;;;;;7.90;2.50;;;;;;;;;;4940930;29;20040;-89
2022/05/23 12:22:49;;;;;;;5.63;2.28;;;;;;;;;;4940326;29;20087;-89
2022/05/23 12:25:15;;;;;;;6.63;2.70;;;;;;;;;;4911004;29;20497;-89
2022/05/23 12:27:49;;;;;;;6.28;2.50;;;;;;;;;;4933758;29;20043;-89
2022/05/23 12:30:21;;;;;;;5.00;2.65;;;;;;;;;;4918187;29;20129;-90
2022/05/23 12:32:59;;;;;;;9.57;2.67;;;;;;;;;;4917829;29;20039;-89
2022/05/23 12:35:40;;;;;;;11.57;2.88;;;;;;;;;;4924663;29;20031;-88
2022/05/23 12:38:10;;;;;;;8.98;2.60;;;;;;;;;;4936217;29;20050;-89
2022/05/23 12:40:47;;;;;;;4.75;2.40;;;;;;;;;;4937455;29;20059;-89
2022/05/23 12:43:31;;;;;;;8.25;2.53;;;;;;;;;;4937430;29;20143;-89
2022/05/23 12:46:20;;;;;;;10.40;2.35;;;;;;;;;;4937201;29;20043;-90
2022/05/23 12:49:15;;;;;;;8.63;2.80;;;;;;;;;;4937828;29;20055;-89
2022/05/23 12:52:01;;;;;;;6.65;2.75;;;;;;;;;;4937050;29;20083;-89
2022/05/23 12:54:38;;;;;;;10.27;2.70;;;;;;;;;;4926763;23;20133;-89
2022/05/23 12:57:43;;;;;;;7.65;2.90;;;;;;;;;;4956379;28;20051;-90
2022/05/23 13:12:35;;;;;;;6.15;2.55;;;;;;;;;;4858930;23;20051;-90
2022/05/23 13:15:02;;;;;;;5.38;2.50;;;;;;;;;;4957038;28;20122;-90
2022/05/23 13:23:40;;;;;;;6.50;2.88;;;;;;;;;;5111878;28;20040;-89
2022/05/23 13:26:07;;;;;;;10.10;2.78;;;;;;;;;;5081402;28;20026;-89
2022/05/23 13:29:10;;;;;;;7.07;2.80;;;;;;;;;;5132707;28;20027;-89
2022/05/23 13:31:45;;;;;;;9.18;2.72;;;;;;;;;;5131296;27;20031;-90
2022/05/23 13:36:53;;;;;;;8.35;3.10;;;;;;;;;;5097829;26;20051;-89
2022/05/23 13:39:19;;;;;;;8.18;3.00;;;;;;;;;;5110628;28;20111;-89
2022/05/23 13:41:45;;;;;;;8.93;2.75;;;;;;;;;;5114545;28;20149;-88
2022/05/23 13:44:21;;;;;;;9.20;3.17;;;;;;;;;;5111587;28;20053;-89
2022/05/23 13:46:48;;;;;;;8.85;3.10;;;;;;;;;;5093938;28;20056;-89
2022/05/23 13:49:25;;;;;;;9.95;3.00;;;;;;;;;;5112506;28;20024;-89
2022/05/23 13:52:12;;;;;;;11.63;3.13;;;;;;;;;;5113875;28;20028;-89
2022/05/23 13:55:26;;;;;;;10.63;2.88;;;;;;;;;;5112017;28;20042;-89
2022/05/23 13:58:22;;;;;;;9.40;3.08;;;;;;;;;;5109120;28;20138;-89
2022/05/23 14:01:32;;;;;;;;;;;;;;;;;;;;;
2022/05/23 14:04:27;;;;;;;9.68;3.00;;;;;;;;;;5109455;28;20545;-86
2022/05/23 14:06:58;;;;;;;12.63;3.33;;;;;;;;;;5111722;28;20035;-91
2022/05/23 14:09:27;;;;;;;7.50;3.22;;;;;;;;;;5111444;28;20053;-90
2022/05/23 14:11:56;;;;;;;15.18;3.90;;;;;;;;;;5113319;28;20024;-88
2022/05/23 14:14:35;;;;;;;8.15;3.95;;;;;;;;;;5114053;28;20036;-86
2022/05/23 14:17:25;;;;;;;10.07;3.55;;;;;;;;;;5114365;28;20444;-88
2022/05/23 14:19:53;;;;;;;11.15;3.35;;;;;;;;;;5113261;28;20484;-88
2022/05/23 14:22:30;;;;;;;10.45;3.85;;;;;;;;;;5114607;28;20023;-88
2022/05/23 14:25:00;;;;;;;14.20;3.75;;;;;;;;;;5114098;28;20038;-87
2022/05/23 14:27:25;;;;;;;13.55;4.20;;;;;;;;;;5109437;28;20074;-87
2022/05/23 14:30:14;;;;;;;17.52;3.90;;;;;;;;;;5101205;28;20032;-87
2022/05/23 14:32:40;;;;;;;12.35;3.95;;;;;;;;;;5100291;28;20043;-88
2022/05/23 14:35:30;;;;;;;10.77;3.90;;;;;;;;;;5097250;28;20032;-90
2022/05/23 14:37:56;;;;;;;15.02;4.28;;;;;;;;;;5099336;28;20036;-88
2022/05/23 14:40:40;;;;;;;11.35;4.32;;;;;;;;;;5098889;28;20036;-87
2022/05/23 14:43:11;;;;;;;11.32;4.32;;;;;;;;;;5099027;28;20469;-87
2022/05/23 14:45:58;;;;;;;11.20;4.10;;;;;;;;;;5098537;28;20032;-88
2022/05/23 14:48:30;;;;;;;11.27;4.03;;;;;;;;;;5099381;28;20081;-88
2022/05/23 14:51:13;;;;;;;10.20;3.90;;;;;;;;;;5098948;28;20034;-87
2022/05/23 14:56:43;;;;;;;10.23;4.55;;;;;;;;;;5098160;28;20032;-88
2022/05/23 15:02:19;;;;;;;9.27;5.05;;;;;;;;;;5044963;28;20057;-87
2022/05/23 15:04:47;;;;;;;12.88;5.05;;;;;;;;;;5102523;28;20047;-87
2022/05/23 15:07:16;;;;;;;7.82;4.32;;;;;;;;;;5101317;28;20016;-88
2022/05/23 15:09:41;;;;;;;13.55;4.82;;;;;;;;;;5103042;28;20055;-87
2022/05/23 15:12:14;;;;;;;8.68;4.53;;;;;;;;;;5085029;28;20036;-87
2022/05/23 15:14:40;;;;;;;;;;;;;;;;;;5101713;28;20032;-86
2022/05/23 15:17:15;;;;;;;10.68;4.45;;;;;;;;;;5099735;28;19911;-86
2022/05/23 15:19:41;;;;;;;13.55;4.63;;;;;;;;;;5100361;28;20538;-88
2022/05/23 15:22:22;;;;;;;13.00;4.30;;;;;;;;;;5100226;28;20031;-87
2022/05/23 15:24:48;;;;;;;13.10;4.15;;;;;;;;;;5099709;28;20430;-87
2022/05/23 15:27:24;;;;;;;10.27;4.20;;;;;;;;;;5100011;28;20047;-89
2022/05/23 15:29:51;;;;;;;6.95;4.25;;;;;;;;;;5098775;28;20039;-87
2022/05/23 15:32:16;;;;;;;11.35;4.43;;;;;;;;;;5099615;28;20040;-87
2022/05/23 15:34:41;;;;;;;9.52;4.20;;;;;;;;;;5097931;28;20548;-88
2022/05/23 15:37:08;;;;;;;9.48;4.47;;;;;;;;;;5098424;28;20032;-87
2022/05/23 15:39:35;;;;;;;11.20;4.75;;;;;;;;;;5096536;28;20040;-87
2022/05/23 15:42:02;;;;;;;8.40;4.30;;;;;;;;;;5099333;28;20032;-87
2022/05/23 15:44:37;;;;;;;9.45;4.30;;;;;;;;;;5098559;28;20476;-87
2022/05/23 15:47:06;;;;;;;15.52;4.15;;;;;;;;;;5099198;28;20039;-87
2022/05/23 15:49:32;;;;;;;10.38;4.55;;;;;;;;;;5099649;28;20075;-86
2022/05/23 15:52:01;;;;;;;9.95;4.28;;;;;;;;;;5099786;28;20051;-87
2022/05/23 15:54:28;;;;;;;8.55;3.75;;;;;;;;;;5099610;28;20062;-87
2022/05/23 15:56:55;;;;;;;9.25;4.13;;;;;;;;;;5096197;28;20020;-87
2022/05/23 15:59:20;;;;;;;14.25;4.28;;;;;;;;;;5096930;28;20193;-87
2022/05/23 16:01:47;;;;;;;13.43;4.47;;;;;;;;;;5097726;28;20476;-86
2022/05/23 16:04:15;;;;;;;9.38;4.07;;;;;;;;;;5099761;28;20111;-83
2022/05/23 16:06:42;;;;;;;11.48;4.60;;;;;;;;;;5097660;28;20055;-86
2022/05/23 16:09:08;;;;;;;11.73;5.25;;;;;;;;;;5097786;28;20039;-86
2022/05/23 16:11:41;;;;;;;13.70;5.40;;;;;;;;;;5097912;28;20035;-86
2022/05/23 16:14:11;;;;;;;16.73;5.40;;;;;;;;;;5098888;28;20415;-86
2022/05/23 16:16:41;;;;;;;11.00;4.72;;;;;;;;;;5098861;28;20047;-86
2022/05/23 16:19:08;;;;;;;9.23;5.03;;;;;;;;;;5098296;28;20073;-86
2022/05/23 16:21:33;;;;;;;9.10;5.25;;;;;;;;;;5099529;28;20043;-86
2022/05/23 16:24:01;;;;;;;8.95;4.78;;;;;;;;;;5098679;28;20032;-87
2022/05/23 16:26:26;;;;;;;9.55;4.38;;;;;;;;;;5098958;28;20488;-86
2022/05/23 16:28:53;;;;;;;11.40;4.70;;;;;;;;;;5100947;28;20512;-87
2022/05/23 16:31:19;;;;;;;10.27;4.40;;;;;;;;;;5101387;28;20040;-86
2022/05/23 16:36:35;;;;;;;14.90;3.85;;;;;;;;;;5100703;28;20031;-86
2022/05/23 16:39:10;;;;;;;13.68;3.63;;;;;;;;;;5101708;28;20044;-86
2022/05/23 16:41:37;;;;;;;14.10;3.95;;;;;;;;;;5101602;28;20062;-85
2022/05/23 16:44:03;;;;;;;12.35;4.00;;;;;;;;;;5100998;28;20130;-86
2022/05/23 16:46:29;;;;;;;10.43;3.67;;;;;;;;;;5101734;28;20028;-86
2022/05/23 16:48:55;;;;;;;11.15;3.40;;;;;;;;;;5100891;28;20039;-86
2022/05/23 16:51:20;;;;;;;11.48;3.80;;;;;;;;;;5101785;28;20115;-86
2022/05/23 16:53:46;;;;;;;12.30;3.88;;;;;;;;;;5101297;28;20081;-85
2022/05/23 16:56:12;;;;;;;14.55;4.10;;;;;;;;;;5099571;28;20032;-86
2022/05/23 16:58:38;;;;;;;15.98;3.70;;;;;;;;;;5099053;28;20032;-85
2022/05/23 17:01:05;;;;;;;9.38;3.35;;;;;;;;;;5098440;28;20039;-87
2022/05/23 17:03:30;;;;;;;7.68;3.10;;;;;;;;;;5098819;28;20035;-87
2022/05/23 17:05:55;;;;;;;13.77;3.10;;;;;;;;;;5098236;28;20039;-88
2022/05/23 17:08:21;;;;;;;11.63;3.45;;;;;;;;;;5099665;28;20061;-86
2022/05/23 17:10:48;;;;;;;12.70;3.08;;;;;;;;;;5099637;28;20039;-86
2022/05/23 17:13:13;;;;;;;10.55;3.60;;;;;;;;;;5098008;28;20048;-87
2022/05/23 17:15:40;;;;;;;13.27;4.00;;;;;;;;;;5096097;28;20035;-86